Time;durP1;ratioP1;P1;durP2;ratioP2;P2;SDS_P1;SDS_P2;PMS_P1;PMS_P2;Temp;Humidity;BMP_temperature;BMP_pressure;BME280_temperature;BME280_humidity;BME280_pressure;Samples;Min_cycle;Max_cycle;Signal;HPM_P1;HPM_P2
2023/12/29 00:00:00;;;;;;;10.50;7.10;;;5.40;99.90;;;;;;6106734;23;20567;-87
2023/12/29 00:02:30;;;;;;;11.53;7.90;;;5.20;99.90;;;;;;6097737;23;20188;-85
2023/12/29 00:04:59;;;;;;;11.70;7.80;;;5.10;99.90;;;;;;6101472;23;20195;-85
2023/12/29 00:07:30;;;;;;;11.33;7.53;;;4.90;99.90;;;;;;6114897;23;20236;-84
2023/12/29 00:10:06;;;;;;;10.80;7.43;;;4.90;99.90;;;;;;6115921;23;20183;-86
2023/12/29 00:12:35;;;;;;;10.90;7.63;;;4.80;99.90;;;;;;6101060;23;20165;-86
2023/12/29 00:15:05;;;;;;;8.87;7.30;;;5.00;99.90;;;;;;6063497;23;20207;-87
2023/12/29 00:17:37;;;;;;;11.73;7.53;;;4.90;99.90;;;;;;6094918;23;20473;-86
2023/12/29 00:20:11;;;;;;;11.67;7.27;;;5.10;99.90;;;;;;6104156;23;20193;-84
2023/12/29 00:22:49;;;;;;;14.07;8.07;;;5.00;99.90;;;;;;6111259;23;20166;-85
2023/12/29 00:25:19;;;;;;;13.20;8.13;;;5.10;99.90;;;;;;6117351;23;20228;-87
2023/12/29 00:27:49;;;;;;;10.57;7.60;;;5.30;99.90;;;;;;6118989;23;20226;-86
2023/12/29 00:30:21;;;;;;;10.50;7.17;;;5.30;99.90;;;;;;6082946;23;20167;-86
2023/12/29 00:32:50;;;;;;;13.07;7.80;;;5.10;99.90;;;;;;6103494;23;20218;-84
2023/12/29 00:35:24;;;;;;;8.77;7.20;;;5.10;99.90;;;;;;6104093;23;20205;-87
2023/12/29 00:37:53;;;;;;;11.37;7.80;;;5.10;99.90;;;;;;6105114;23;20172;-87
2023/12/29 00:40:24;;;;;;;10.03;7.37;;;5.10;99.90;;;;;;6101570;23;20180;-86
2023/12/29 00:42:52;;;;;;;10.40;7.50;;;5.10;99.90;;;;;;6115935;23;20367;-86
2023/12/29 00:45:24;;;;;;;10.97;7.43;;;5.00;99.90;;;;;;6071549;23;20179;-88
2023/12/29 00:47:53;;;;;;;10.33;7.97;;;5.10;99.90;;;;;;6101364;23;20164;-84
2023/12/29 00:50:22;;;;;;;10.90;7.77;;;5.00;99.90;;;;;;6097895;23;20164;-86
2023/12/29 00:52:51;;;;;;;10.47;7.37;;;5.10;99.90;;;;;;6101077;23;20326;-86
2023/12/29 00:55:23;;;;;;;10.23;7.70;;;5.00;99.90;;;;;;6096228;23;20226;-87
2023/12/29 00:57:51;;;;;;;12.03;7.80;;;5.10;99.90;;;;;;6100045;23;20549;-85
2023/12/29 01:00:21;;;;;;;10.23;8.20;;;5.10;99.90;;;;;;6096409;23;20209;-84
2023/12/29 01:02:50;;;;;;;12.30;8.40;;;5.00;99.90;;;;;;6100318;23;20159;-86
2023/12/29 01:05:20;;;;;;;10.57;8.33;;;4.90;99.90;;;;;;6082042;23;20181;-84
2023/12/29 01:07:49;;;;;;;12.30;8.70;;;4.90;99.90;;;;;;6091459;23;20162;-85
2023/12/29 01:10:18;;;;;;;10.07;8.13;;;4.80;99.90;;;;;;6097861;23;20159;-87
2023/12/29 01:12:49;;;;;;;11.10;8.17;;;4.90;99.90;;;;;;6098461;23;20204;-88
2023/12/29 01:15:18;;;;;;;12.93;8.97;;;4.80;99.90;;;;;;6094431;23;20176;-85
2023/12/29 01:17:47;;;;;;;12.83;9.13;;;4.60;99.90;;;;;;6060101;23;20251;-86
2023/12/29 01:20:16;;;;;;;15.93;9.57;;;4.60;99.90;;;;;;6091551;23;20248;-86
2023/12/29 01:22:45;;;;;;;13.63;9.50;;;4.60;99.90;;;;;;6090732;23;20656;-87
2023/12/29 01:25:14;;;;;;;15.73;10.63;;;4.50;99.90;;;;;;6094437;23;20175;-87
2023/12/29 01:27:43;;;;;;;15.43;10.03;;;4.50;99.90;;;;;;6096016;23;20292;-85
2023/12/29 01:30:14;;;;;;;14.53;9.33;;;4.50;99.90;;;;;;6097055;23;20177;-86
2023/12/29 01:32:43;;;;;;;14.13;9.67;;;4.40;99.90;;;;;;6097889;23;20612;-86
2023/12/29 01:35:12;;;;;;;14.43;9.90;;;4.30;99.90;;;;;;6101833;23;20187;-86
2023/12/29 01:37:44;;;;;;;13.67;9.27;;;4.30;99.90;;;;;;6103289;23;20663;-87
2023/12/29 01:40:15;;;;;;;14.00;10.33;;;4.30;99.90;;;;;;6114495;23;20756;-87
2023/12/29 01:42:44;;;;;;;12.90;9.87;;;4.20;99.90;;;;;;6108911;23;20257;-88
2023/12/29 01:45:23;;;;;;;15.30;9.93;;;4.10;99.90;;;;;;6106423;23;20169;-88
2023/12/29 01:47:52;;;;;;;16.40;10.33;;;3.90;99.90;;;;;;6097355;23;20672;-86
2023/12/29 01:50:22;;;;;;;16.30;10.00;;;3.80;99.90;;;;;;6091816;23;20169;-86
2023/12/29 01:52:53;;;;;;;16.50;10.93;;;3.90;99.90;;;;;;6102761;23;20160;-86
2023/12/29 01:55:23;;;;;;;14.23;10.73;;;3.90;99.90;;;;;;6104279;23;20176;-87
2023/12/29 01:57:52;;;;;;;16.90;12.13;;;3.80;99.90;;;;;;6096044;23;20189;-89
2023/12/29 02:00:23;;;;;;;15.07;10.63;;;3.90;99.90;;;;;;6090652;23;20165;-89
2023/12/29 02:02:52;;;;;;;16.30;11.30;;;3.90;99.90;;;;;;6059358;23;20260;-86
2023/12/29 02:05:25;;;;;;;15.37;10.90;;;3.90;99.90;;;;;;6094506;23;20177;-87
2023/12/29 02:07:54;;;;;;;17.23;11.63;;;4.10;99.90;;;;;;6097278;23;20510;-87
2023/12/29 02:10:24;;;;;;;18.23;10.80;;;4.00;99.90;;;;;;6092501;23;20172;-89
2023/12/29 02:12:57;;;;;;;15.23;11.23;;;4.20;99.90;;;;;;6093057;23;20634;-85
2023/12/29 02:15:28;;;;;;;21.07;11.23;;;4.00;99.90;;;;;;6091013;23;20241;-88
2023/12/29 02:18:02;;;;;;;14.97;11.23;;;4.00;99.90;;;;;;6091957;23;20642;-87
2023/12/29 02:20:31;;;;;;;16.00;10.80;;;4.00;99.90;;;;;;6089605;23;20720;-85
2023/12/29 02:23:01;;;;;;;16.83;10.40;;;3.90;99.90;;;;;;6090301;23;20173;-86
2023/12/29 02:25:31;;;;;;;15.93;11.40;;;3.80;99.90;;;;;;6090037;23;20161;-84
2023/12/29 02:28:05;;;;;;;17.23;11.73;;;3.70;99.90;;;;;;6090871;23;20168;-87
2023/12/29 02:30:40;;;;;;;18.43;12.03;;;3.60;99.90;;;;;;6087778;23;20175;-87
2023/12/29 02:33:11;;;;;;;16.90;11.50;;;3.60;99.90;;;;;;6091217;23;20224;-87
2023/12/29 02:35:44;;;;;;;16.57;11.80;;;3.40;99.90;;;;;;6091354;23;20276;-88
2023/12/29 02:38:13;;;;;;;17.17;12.27;;;3.80;99.90;;;;;;6090107;23;20181;-87
2023/12/29 02:40:44;;;;;;;17.30;11.70;;;3.80;99.90;;;;;;6089379;23;20161;-86
2023/12/29 02:43:14;;;;;;;16.80;12.57;;;3.90;99.90;;;;;;6091607;23;20183;-86
2023/12/29 02:45:43;;;;;;;17.17;12.93;;;3.70;99.90;;;;;;6092822;23;20157;-86
2023/12/29 02:48:14;;;;;;;17.73;12.13;;;3.70;99.90;;;;;;6094748;23;20180;-86
2023/12/29 02:50:51;;;;;;;17.17;12.00;;;3.80;99.90;;;;;;6091627;23;20523;-86
2023/12/29 02:53:20;;;;;;;16.83;13.03;;;3.70;99.90;;;;;;6083999;23;20177;-86
2023/12/29 02:55:53;;;;;;;16.30;12.40;;;3.70;99.90;;;;;;6093006;23;20636;-85
2023/12/29 02:58:24;;;;;;;20.10;14.37;;;3.50;99.90;;;;;;6104839;23;20197;-87
2023/12/29 03:00:53;;;;;;;16.37;12.60;;;3.60;99.90;;;;;;6076194;23;20185;-87
2023/12/29 03:03:22;;;;;;;18.93;13.43;;;3.60;99.90;;;;;;6111122;23;20151;-87
2023/12/29 03:05:51;;;;;;;20.43;13.50;;;3.60;99.90;;;;;;6097311;23;20177;-87
2023/12/29 03:08:21;;;;;;;21.50;13.77;;;3.50;99.90;;;;;;6057958;23;20533;-87
2023/12/29 03:10:52;;;;;;;18.10;13.67;;;3.40;99.90;;;;;;6094114;23;20176;-88
2023/12/29 03:13:21;;;;;;;21.20;14.80;;;3.40;99.90;;;;;;6099117;23;20352;-85
2023/12/29 03:15:50;;;;;;;17.63;13.40;;;3.50;99.90;;;;;;6104164;23;20158;-85
2023/12/29 03:18:19;;;;;;;20.30;14.20;;;3.50;99.90;;;;;;6098677;23;20295;-84
2023/12/29 03:20:49;;;;;;;21.47;14.73;;;3.40;99.90;;;;;;6095600;23;20244;-86
2023/12/29 03:23:20;;;;;;;21.87;14.43;;;3.40;99.90;;;;;;6101585;23;20209;-86
2023/12/29 03:25:51;;;;;;;21.53;15.20;;;3.40;99.90;;;;;;6079591;23;20181;-85
2023/12/29 03:28:20;;;;;;;21.07;14.87;;;3.30;99.90;;;;;;6099946;23;20593;-85
2023/12/29 03:30:49;;;;;;;22.37;15.47;;;3.30;99.90;;;;;;6093837;23;20172;-89
2023/12/29 03:33:18;;;;;;;23.43;14.37;;;3.20;99.90;;;;;;6061347;23;20176;-89
2023/12/29 03:35:48;;;;;;;24.17;15.87;;;3.30;99.90;;;;;;6057481;23;20256;-86
2023/12/29 03:38:17;;;;;;;24.73;16.43;;;3.30;99.90;;;;;;6103015;23;20200;-85
2023/12/29 03:40:46;;;;;;;25.73;16.13;;;3.30;99.90;;;;;;6106358;23;20519;-86
2023/12/29 03:43:19;;;;;;;23.53;15.97;;;3.50;99.90;;;;;;6115886;23;20199;-88
2023/12/29 03:45:49;;;;;;;22.23;15.30;;;3.20;99.90;;;;;;6110949;23;20181;-87
2023/12/29 03:48:18;;;;;;;27.07;16.13;;;3.30;99.90;;;;;;6117429;23;20180;-85
2023/12/29 03:50:48;;;;;;;23.97;16.53;;;3.20;99.90;;;;;;6118919;23;20284;-88
2023/12/29 03:53:19;;;;;;;23.67;16.27;;;3.30;99.90;;;;;;6081704;23;20177;-84
2023/12/29 03:55:48;;;;;;;28.20;16.30;;;3.10;99.90;;;;;;6082630;23;20192;-87
2023/12/29 03:58:19;;;;;;;25.20;16.90;;;3.20;99.90;;;;;;6095967;23;20199;-87
2023/12/29 04:00:48;;;;;;;28.67;16.40;;;3.20;99.90;;;;;;6092250;23;20569;-86
2023/12/29 04:03:17;;;;;;;22.83;16.20;;;3.20;99.90;;;;;;6093575;23;20188;-87
2023/12/29 04:05:47;;;;;;;24.73;16.57;;;3.10;99.90;;;;;;6060460;23;20189;-87
2023/12/29 04:08:15;;;;;;;26.37;16.70;;;3.10;99.90;;;;;;6097031;23;20204;-87
2023/12/29 04:10:45;;;;;;;25.80;16.40;;;3.20;99.90;;;;;;6093724;23;20176;-86
2023/12/29 04:13:13;;;;;;;23.43;16.57;;;3.00;99.90;;;;;;6096640;23;20173;-86
2023/12/29 04:15:44;;;;;;;24.53;16.47;;;3.00;99.90;;;;;;6058879;23;20181;-87
2023/12/29 04:18:13;;;;;;;24.17;17.30;;;2.90;99.90;;;;;;6102779;23;20192;-83
2023/12/29 04:20:42;;;;;;;29.73;16.53;;;3.20;99.90;;;;;;6098570;23;20604;-86
2023/12/29 04:23:12;;;;;;;24.63;17.37;;;3.10;99.90;;;;;;6093070;23;20244;-86
2023/12/29 04:25:41;;;;;;;25.10;17.67;;;3.10;99.90;;;;;;6093499;23;20162;-86
2023/12/29 04:28:10;;;;;;;26.10;17.17;;;3.10;99.90;;;;;;6096510;23;20239;-86
2023/12/29 04:30:39;;;;;;;26.73;17.63;;;3.30;99.90;;;;;;6096881;23;20173;-87
2023/12/29 04:33:10;;;;;;;25.40;17.40;;;3.20;99.90;;;;;;6099836;23;20474;-87
2023/12/29 04:35:39;;;;;;;25.50;17.50;;;3.10;99.90;;;;;;6109283;23;20161;-84
2023/12/29 04:38:07;;;;;;;23.17;17.07;;;3.00;99.90;;;;;;6108638;23;20205;-85
2023/12/29 04:40:37;;;;;;;27.53;18.17;;;3.10;99.90;;;;;;6092974;23;20493;-85
2023/12/29 04:43:06;;;;;;;25.57;16.57;;;3.10;99.90;;;;;;6092356;23;20289;-87
2023/12/29 04:45:36;;;;;;;25.87;17.07;;;3.10;99.90;;;;;;6091121;23;20193;-86
2023/12/29 04:48:05;;;;;;;26.27;16.53;;;3.30;99.90;;;;;;6093705;23;20232;-86
2023/12/29 04:50:36;;;;;;;25.17;16.83;;;3.20;99.90;;;;;;6093829;23;20741;-85
2023/12/29 04:53:05;;;;;;;26.50;16.70;;;3.40;99.90;;;;;;6093534;23;20187;-85
2023/12/29 04:55:36;;;;;;;25.90;16.97;;;3.30;99.90;;;;;;6094802;23;20165;-86
2023/12/29 04:58:06;;;;;;;24.83;16.57;;;3.40;99.90;;;;;;6095387;23;20248;-86
2023/12/29 05:00:35;;;;;;;22.93;15.73;;;3.20;99.90;;;;;;6094403;23;20177;-88
2023/12/29 05:03:05;;;;;;;24.43;17.03;;;3.40;99.90;;;;;;6099544;23;20244;-86
2023/12/29 05:05:37;;;;;;;25.80;16.63;;;3.30;99.90;;;;;;6096972;23;20627;-86
2023/12/29 05:08:06;;;;;;;21.93;16.83;;;3.30;99.90;;;;;;6095822;23;20191;-85
2023/12/29 05:10:36;;;;;;;24.53;16.57;;;3.50;99.90;;;;;;6094140;23;20168;-86
2023/12/29 05:13:08;;;;;;;24.37;16.43;;;3.60;99.90;;;;;;6097881;23;20224;-86
2023/12/29 05:15:37;;;;;;;24.07;16.17;;;3.60;99.90;;;;;;6096494;23;20176;-86
2023/12/29 05:18:06;;;;;;;25.57;15.73;;;3.80;99.90;;;;;;6096891;23;20248;-87
2023/12/29 05:20:38;;;;;;;23.63;16.20;;;3.70;99.90;;;;;;6093712;23;20185;-85
2023/12/29 05:23:08;;;;;;;22.13;15.57;;;3.70;99.90;;;;;;6092645;23;20181;-86
2023/12/29 05:25:37;;;;;;;24.27;15.87;;;3.80;99.90;;;;;;6094770;23;20180;-85
2023/12/29 05:28:11;;;;;;;22.80;15.93;;;3.80;99.90;;;;;;6094334;23;20176;-84
2023/12/29 05:30:40;;;;;;;23.67;14.60;;;3.70;99.90;;;;;;6104279;23;20177;-84
2023/12/29 05:33:09;;;;;;;20.17;15.17;;;3.80;99.90;;;;;;6102812;23;20169;-86
2023/12/29 05:35:40;;;;;;;21.23;14.40;;;3.80;99.90;;;;;;6095193;23;20177;-85
2023/12/29 05:38:08;;;;;;;20.90;14.23;;;3.90;99.90;;;;;;6093236;23;20189;-85
2023/12/29 05:40:38;;;;;;;21.30;14.73;;;4.00;99.90;;;;;;6103314;23;20180;-84
2023/12/29 05:43:07;;;;;;;19.17;14.27;;;4.00;99.90;;;;;;6104614;23;20172;-84
2023/12/29 05:45:36;;;;;;;25.23;14.77;;;4.00;99.90;;;;;;6102397;23;20186;-85
2023/12/29 05:48:06;;;;;;;21.50;14.47;;;4.10;99.90;;;;;;6100834;23;20176;-86
2023/12/29 05:50:35;;;;;;;17.97;13.57;;;4.10;99.90;;;;;;6109640;23;20177;-85
2023/12/29 05:53:06;;;;;;;21.43;13.67;;;4.10;99.90;;;;;;6113021;23;20407;-85
2023/12/29 05:55:35;;;;;;;21.00;14.43;;;4.00;99.90;;;;;;6103477;23;20236;-84
2023/12/29 05:58:05;;;;;;;21.20;15.07;;;4.00;99.90;;;;;;6060410;23;20272;-87
2023/12/29 06:00:35;;;;;;;21.83;14.17;;;4.00;99.90;;;;;;6117024;23;20222;-85
2023/12/29 06:17:49;;;;;;;25.90;16.20;;;3.90;99.90;;;;;;5965200;24;20375;-83
2023/12/29 06:20:29;;;;;;;20.30;14.80;;;4.00;99.90;;;;;;5971846;23;20202;-82
2023/12/29 06:22:58;;;;;;;25.77;15.50;;;4.10;99.90;;;;;;5966541;24;20262;-81
2023/12/29 06:25:42;;;;;;;26.30;14.90;;;4.10;99.90;;;;;;5970318;24;20180;-81
2023/12/29 06:28:37;;;;;;;22.07;15.03;;;4.00;99.90;;;;;;5961696;24;20275;-81
2023/12/29 06:31:22;;;;;;;20.83;15.23;;;4.00;99.90;;;;;;5957942;24;20437;-83
2023/12/29 06:33:53;;;;;;;21.77;14.47;;;4.10;99.90;;;;;;5951769;24;20164;-83
2023/12/29 06:36:24;;;;;;;21.17;14.53;;;4.00;99.90;;;;;;5961448;24;20167;-83
2023/12/29 06:38:59;;;;;;;20.00;14.63;;;4.00;99.90;;;;;;5949583;24;20212;-82
2023/12/29 06:41:29;;;;;;;18.27;13.83;;;3.90;99.90;;;;;;5967598;24;20191;-81
2023/12/29 06:44:03;;;;;;;19.40;14.73;;;3.90;99.90;;;;;;5960340;24;20263;-82
2023/12/29 06:46:47;;;;;;;19.93;13.87;;;3.90;99.90;;;;;;5960573;23;20191;-81
2023/12/29 06:49:18;;;;;;;19.47;13.70;;;4.00;99.90;;;;;;6095213;23;20162;-80
2023/12/29 06:51:52;;;;;;;17.80;14.10;;;4.00;99.90;;;;;;6083875;23;20173;-81
2023/12/29 06:54:22;;;;;;;20.47;13.60;;;4.00;99.90;;;;;;6092401;23;20182;-83
2023/12/29 06:57:18;;;;;;;20.27;14.70;;;4.10;99.90;;;;;;6078075;23;20177;-84
2023/12/29 07:01:00;;;;;;;16.90;12.77;;;4.20;99.90;;;;;;6012870;23;20205;-81
2023/12/29 07:03:31;;;;;;;21.00;13.63;;;4.30;99.90;;;;;;5977300;23;20235;-82
2023/12/29 07:06:01;;;;;;;19.77;13.53;;;4.30;99.90;;;;;;6076804;23;20254;-82
2023/12/29 07:08:32;;;;;;;19.57;13.70;;;4.20;99.90;;;;;;6101481;23;20242;-82
2023/12/29 07:11:00;;;;;;;19.60;13.63;;;4.20;99.90;;;;;;6084153;23;20663;-82
2023/12/29 07:13:29;;;;;;;18.47;12.57;;;4.20;99.90;;;;;;6070316;23;20162;-83
2023/12/29 07:15:57;;;;;;;19.47;13.77;;;4.20;99.90;;;;;;6062660;23;20688;-84
2023/12/29 07:18:26;;;;;;;17.90;13.30;;;4.30;99.90;;;;;;6059801;23;20162;-81
2023/12/29 07:20:54;;;;;;;19.43;13.77;;;4.30;99.90;;;;;;6060375;23;20218;-83
2023/12/29 07:23:23;;;;;;;22.63;14.10;;;4.30;99.90;;;;;;6068772;23;20177;-83
2023/12/29 07:25:53;;;;;;;19.20;13.97;;;4.30;99.90;;;;;;6082526;23;20174;-82
2023/12/29 07:28:22;;;;;;;20.93;14.93;;;4.40;99.90;;;;;;6079430;23;20180;-79
2023/12/29 07:30:50;;;;;;;21.33;14.50;;;4.40;99.90;;;;;;6033873;23;20284;-82
2023/12/29 07:33:19;;;;;;;19.60;14.63;;;4.50;99.90;;;;;;6070493;23;20170;-83
2023/12/29 07:35:48;;;;;;;20.47;14.63;;;4.60;99.90;;;;;;6072965;23;20170;-82
2023/12/29 07:38:17;;;;;;;21.33;13.80;;;4.70;99.90;;;;;;6070924;23;20172;-84
2023/12/29 07:40:47;;;;;;;19.87;13.90;;;4.80;99.90;;;;;;6073628;23;20200;-81
2023/12/29 07:43:17;;;;;;;23.80;14.00;;;4.90;99.90;;;;;;6075738;23;20183;-81
2023/12/29 07:45:46;;;;;;;22.03;14.53;;;5.00;99.90;;;;;;6068494;23;20206;-80
2023/12/29 07:48:14;;;;;;;22.57;14.60;;;5.10;99.90;;;;;;6067396;23;20183;-83
2023/12/29 07:50:43;;;;;;;21.70;14.40;;;5.10;99.90;;;;;;6058885;23;20169;-80
2023/12/29 07:53:12;;;;;;;19.20;14.20;;;5.10;99.90;;;;;;6060883;23;20240;-82
2023/12/29 07:55:40;;;;;;;20.27;13.57;;;5.10;99.90;;;;;;6051604;23;20987;-82
2023/12/29 07:58:10;;;;;;;20.60;14.77;;;5.10;99.90;;;;;;6060982;23;20735;-83
2023/12/29 08:00:40;;;;;;;24.47;14.20;;;5.10;99.90;;;;;;6066660;23;20278;-81
2023/12/29 08:03:09;;;;;;;20.67;14.33;;;5.10;99.90;;;;;;6066014;23;20172;-79
2023/12/29 08:05:37;;;;;;;22.03;14.83;;;5.10;99.90;;;;;;6068048;23;20187;-83
2023/12/29 08:08:06;;;;;;;19.97;13.37;;;5.10;99.90;;;;;;6078890;23;20390;-83
2023/12/29 08:10:35;;;;;;;21.20;14.80;;;5.20;99.90;;;;;;6083954;23;20349;-81
2023/12/29 08:13:04;;;;;;;20.67;14.33;;;5.20;99.90;;;;;;6083065;23;20176;-83
2023/12/29 08:15:32;;;;;;;21.00;13.57;;;5.20;99.90;;;;;;6067484;23;20169;-84
2023/12/29 08:18:02;;;;;;;18.77;13.03;;;5.20;99.90;;;;;;6073792;23;20669;-81
2023/12/29 08:20:31;;;;;;;20.63;13.57;;;5.30;99.90;;;;;;6061414;23;20222;-81
2023/12/29 08:23:02;;;;;;;20.37;13.60;;;5.40;99.90;;;;;;6068195;23;20176;-82
2023/12/29 08:25:31;;;;;;;19.67;13.67;;;5.20;99.90;;;;;;6089068;23;20175;-82
2023/12/29 08:27:59;;;;;;;19.67;13.47;;;5.30;99.90;;;;;;6078191;23;20267;-82
2023/12/29 08:30:28;;;;;;;20.33;13.63;;;5.30;99.90;;;;;;6058277;23;20704;-80
2023/12/29 08:33:34;;;;;;;18.13;13.60;;;5.30;99.90;;;;;;6067341;23;20215;-82
2023/12/29 08:36:08;;;;;;;18.77;13.63;;;5.30;99.90;;;;;;6002338;23;20689;-81
2023/12/29 08:38:39;;;;;;;20.17;13.30;;;5.30;99.90;;;;;;6077015;23;20218;-81
2023/12/29 08:41:14;;;;;;;17.57;11.97;;;5.30;99.90;;;;;;6074349;23;20249;-82
2023/12/29 08:43:46;;;;;;;18.83;12.87;;;5.30;99.90;;;;;;6081052;23;20214;-83
2023/12/29 08:46:14;;;;;;;19.10;13.30;;;5.40;99.90;;;;;;6078412;23;20175;-80
2023/12/29 08:48:49;;;;;;;16.97;11.70;;;5.50;99.90;;;;;;6097322;23;20180;-81
2023/12/29 08:51:19;;;;;;;18.80;12.90;;;5.40;99.90;;;;;;6088728;23;20168;-84
2023/12/29 08:53:47;;;;;;;16.47;12.03;;;5.40;99.90;;;;;;6089457;23;20209;-82
2023/12/29 08:56:16;;;;;;;17.83;12.33;;;5.50;99.90;;;;;;6091871;23;20173;-83
2023/12/29 08:58:45;;;;;;;16.33;11.70;;;5.50;99.90;;;;;;6074701;23;20169;-81
2023/12/29 09:01:15;;;;;;;15.03;11.20;;;5.70;99.90;;;;;;6082763;23;20252;-81
2023/12/29 09:03:45;;;;;;;14.47;11.17;;;5.70;99.90;;;;;;6077808;23;20164;-81
2023/12/29 09:06:16;;;;;;;17.17;11.10;;;5.70;99.90;;;;;;6052757;23;20195;-81
2023/12/29 09:08:45;;;;;;;15.63;11.30;;;5.70;99.90;;;;;;6091250;23;20188;-81
2023/12/29 09:11:13;;;;;;;14.87;10.67;;;6.00;99.90;;;;;;6094131;23;20156;-83
2023/12/29 09:13:45;;;;;;;12.67;10.03;;;6.00;99.90;;;;;;6088555;23;20152;-83
2023/12/29 09:16:13;;;;;;;14.60;10.60;;;6.00;99.90;;;;;;6072976;23;21072;-82
2023/12/29 09:18:45;;;;;;;13.23;10.10;;;6.10;99.90;;;;;;6063077;23;20168;-82
2023/12/29 09:21:14;;;;;;;13.47;10.00;;;6.20;99.90;;;;;;6062960;23;20239;-80
2023/12/29 09:23:43;;;;;;;14.00;10.77;;;6.20;99.90;;;;;;6056941;23;20291;-83
2023/12/29 09:26:13;;;;;;;15.30;10.27;;;6.20;99.90;;;;;;6063081;23;20931;-82
2023/12/29 09:28:45;;;;;;;12.80;9.47;;;6.30;99.90;;;;;;6066265;23;20515;-82
2023/12/29 09:31:14;;;;;;;13.90;9.93;;;6.30;99.90;;;;;;6079579;23;20251;-80
2023/12/29 09:33:43;;;;;;;13.30;10.00;;;6.20;99.90;;;;;;6064140;23;20351;-83
2023/12/29 09:36:13;;;;;;;12.27;8.90;;;6.40;99.90;;;;;;6059917;23;20638;-81
2023/12/29 09:38:46;;;;;;;13.03;9.10;;;6.30;99.90;;;;;;6063899;23;20597;-80
2023/12/29 09:41:16;;;;;;;12.93;9.63;;;6.40;99.90;;;;;;6016574;23;20215;-81
2023/12/29 09:43:49;;;;;;;14.13;9.70;;;6.40;99.90;;;;;;6064703;23;20169;-81
2023/12/29 09:46:19;;;;;;;13.13;9.50;;;6.50;99.90;;;;;;6062562;23;20632;-82
2023/12/29 09:48:48;;;;;;;11.17;8.80;;;6.60;99.90;;;;;;6065174;23;20169;-83
2023/12/29 09:51:23;;;;;;;11.40;8.70;;;6.50;99.90;;;;;;6055370;23;20344;-81
2023/12/29 09:53:52;;;;;;;12.53;9.10;;;6.90;99.90;;;;;;6063868;23;20172;-82
2023/12/29 09:56:27;;;;;;;11.33;8.43;;;7.10;99.90;;;;;;6051920;23;20181;-84
2023/12/29 09:58:57;;;;;;;11.93;8.63;;;7.20;99.90;;;;;;6061593;23;20164;-82
2023/12/29 10:01:29;;;;;;;11.03;7.90;;;7.40;99.90;;;;;;6052682;23;20220;-82
2023/12/29 10:03:59;;;;;;;9.20;7.60;;;7.60;99.90;;;;;;6063598;23;20173;-83
2023/12/29 10:06:35;;;;;;;10.07;7.53;;;7.70;99.90;;;;;;6061764;23;20336;-82
2023/12/29 10:09:05;;;;;;;8.63;6.53;;;7.80;99.90;;;;;;6063205;23;20176;-83
2023/12/29 10:11:36;;;;;;;8.70;6.03;;;8.00;99.90;;;;;;6063291;23;20544;-82
2023/12/29 10:14:19;;;;;;;6.40;5.20;;;8.20;99.90;;;;;;6062355;23;20246;-82
2023/12/29 10:16:55;;;;;;;7.40;5.50;;;8.30;99.90;;;;;;6064900;23;20168;-82
2023/12/29 10:19:33;;;;;;;7.17;5.63;;;8.70;99.90;;;;;;6063065;23;20394;-80
2023/12/29 10:22:09;;;;;;;5.00;4.50;;;8.90;99.90;;;;;;6066191;23;20200;-80
2023/12/29 10:24:38;;;;;;;6.17;4.77;;;9.10;98.50;;;;;;6064464;23;20440;-82
2023/12/29 10:27:09;;;;;;;6.43;4.83;;;9.20;98.20;;;;;;6062513;23;20189;-81
2023/12/29 10:29:42;;;;;;;5.00;4.50;;;9.20;98.10;;;;;;6061875;23;20723;-82
2023/12/29 10:32:10;;;;;;;6.10;4.57;;;9.30;97.30;;;;;;6052441;23;20169;-81
2023/12/29 10:34:43;;;;;;;6.13;4.67;;;9.30;96.60;;;;;;6071273;23;20193;-81
2023/12/29 10:37:19;;;;;;;5.17;4.40;;;9.40;96.10;;;;;;6067207;23;20345;-83
2023/12/29 10:39:56;;;;;;;5.90;4.63;;;9.40;95.90;;;;;;6058159;23;20703;-82
2023/12/29 10:42:25;;;;;;;6.03;4.20;;;9.40;95.80;;;;;;6065964;23;20193;-82
2023/12/29 10:45:07;;;;;;;5.60;4.37;;;9.50;95.60;;;;;;6026641;23;20393;-81
2023/12/29 10:47:40;;;;;;;6.20;4.17;;;9.50;95.60;;;;;;6061097;23;20165;-81
2023/12/29 10:50:10;;;;;;;5.07;4.60;;;9.60;94.80;;;;;;6058275;23;20184;-81
2023/12/29 10:52:42;;;;;;;5.03;4.50;;;9.70;94.50;;;;;;6061442;23;20937;-80
2023/12/29 10:55:11;;;;;;;6.00;4.70;;;9.70;94.00;;;;;;6066932;23;20281;-83
2023/12/29 10:57:41;;;;;;;7.90;4.53;;;9.70;94.30;;;;;;6046358;23;20522;-81
2023/12/29 11:00:13;;;;;;;7.10;4.30;;;9.70;94.20;;;;;;6063218;23;20658;-80
2023/12/29 11:02:42;;;;;;;5.50;4.47;;;9.70;94.40;;;;;;6063841;23;20815;-82
2023/12/29 11:05:11;;;;;;;6.27;4.23;;;9.70;94.00;;;;;;6061494;23;20227;-80
2023/12/29 11:07:42;;;;;;;5.70;4.43;;;9.70;94.10;;;;;;6060732;23;20699;-80
2023/12/29 11:10:14;;;;;;;5.43;4.50;;;9.80;93.80;;;;;;6064941;23;20636;-83
2023/12/29 11:12:42;;;;;;;5.17;4.53;;;9.90;94.10;;;;;;6066906;23;20169;-80
2023/12/29 11:15:15;;;;;;;6.50;4.03;;;10.00;93.40;;;;;;6067527;23;20165;-83
2023/12/29 11:17:49;;;;;;;6.13;4.50;;;10.00;93.60;;;;;;6067536;23;20169;-81
2023/12/29 11:20:19;;;;;;;5.40;4.10;;;10.00;93.60;;;;;;6076256;23;20188;-84
2023/12/29 11:22:49;;;;;;;5.20;4.30;;;10.10;92.80;;;;;;6067154;23;20795;-80
2023/12/29 11:25:18;;;;;;;5.07;3.93;;;10.10;93.10;;;;;;6060316;23;20590;-79
2023/12/29 11:27:46;;;;;;;5.47;4.17;;;10.10;92.90;;;;;;6062853;23;20185;-83
2023/12/29 11:30:16;;;;;;;5.13;3.67;;;10.20;92.30;;;;;;6058992;23;20436;-81
2023/12/29 11:32:53;;;;;;;6.37;3.93;;;10.30;91.70;;;;;;6065175;23;20575;-79
2023/12/29 11:35:30;;;;;;;5.97;3.97;;;10.40;91.60;;;;;;6068524;23;20165;-82
2023/12/29 11:38:22;;;;;;;6.30;4.03;;;10.40;92.00;;;;;;6071520;23;20505;-82
2023/12/29 11:40:59;;;;;;;5.47;3.97;;;10.40;91.50;;;;;;6067338;23;20252;-81
2023/12/29 11:43:28;;;;;;;4.40;3.70;;;10.40;91.00;;;;;;6067551;23;20165;-80
2023/12/29 11:45:56;;;;;;;5.03;4.00;;;10.40;91.30;;;;;;6067523;23;20220;-81
2023/12/29 11:48:55;;;;;;;4.67;3.83;;;10.40;91.50;;;;;;6069195;23;20478;-80
2023/12/29 11:51:36;;;;;;;4.43;3.77;;;10.30;91.40;;;;;;6069503;23;20439;-82
2023/12/29 11:54:07;;;;;;;6.00;4.13;;;10.30;91.60;;;;;;6059961;23;20592;-80
2023/12/29 11:56:37;;;;;;;4.20;3.80;;;10.20;91.60;;;;;;6072576;23;20192;-82
2023/12/29 11:59:19;;;;;;;4.73;3.83;;;10.30;91.90;;;;;;6065102;23;20825;-82
2023/12/29 12:01:49;;;;;;;6.80;4.07;;;10.30;91.40;;;;;;6069875;23;20592;-81
2023/12/29 12:04:44;;;;;;;6.33;4.07;;;10.40;91.40;;;;;;6070703;23;20443;-81
2023/12/29 12:07:37;;;;;;;6.90;4.30;;;10.40;91.50;;;;;;6070908;23;20192;-79
2023/12/29 12:10:33;;;;;;;5.97;4.10;;;10.30;91.50;;;;;;6067405;23;20181;-80
2023/12/29 12:13:03;;;;;;;5.57;4.20;;;10.30;91.80;;;;;;6065896;23;20419;-79
2023/12/29 12:15:35;;;;;;;6.63;3.90;;;10.20;92.20;;;;;;6068844;23;20196;-81
2023/12/29 12:18:07;;;;;;;5.30;4.03;;;10.20;92.50;;;;;;6066843;23;20251;-82
2023/12/29 12:20:35;;;;;;;6.00;4.60;;;10.20;92.40;;;;;;6059112;23;20429;-80
2023/12/29 12:23:11;;;;;;;4.83;4.00;;;10.20;92.10;;;;;;6056357;23;20656;-82
2023/12/29 12:25:41;;;;;;;5.13;4.10;;;10.20;92.30;;;;;;6071738;23;20275;-81
2023/12/29 12:28:11;;;;;;;6.57;4.03;;;10.10;92.40;;;;;;6089533;23;20574;-82
2023/12/29 12:30:39;;;;;;;6.10;4.87;;;10.10;93.10;;;;;;6062730;23;20540;-82
2023/12/29 12:33:11;;;;;;;7.77;4.53;;;10.10;93.00;;;;;;6073295;23;20709;-80
2023/12/29 12:35:40;;;;;;;4.80;4.00;;;10.10;92.40;;;;;;6071749;23;20375;-82
2023/12/29 12:38:11;;;;;;;5.97;4.50;;;10.10;92.80;;;;;;6069569;23;20196;-82
2023/12/29 12:40:41;;;;;;;6.63;4.97;;;10.20;92.70;;;;;;6070853;23;20620;-83
2023/12/29 12:43:15;;;;;;;5.50;4.10;;;10.10;92.40;;;;;;6067418;23;20462;-81
2023/12/29 12:45:48;;;;;;;6.33;4.43;;;10.20;92.50;;;;;;6072947;23;20181;-84
2023/12/29 12:48:24;;;;;;;5.60;4.47;;;10.20;92.30;;;;;;6069417;23;20218;-81
2023/12/29 12:50:56;;;;;;;7.00;4.20;;;10.20;93.00;;;;;;6070291;23;20496;-84
2023/12/29 12:53:25;;;;;;;5.83;4.10;;;10.20;92.80;;;;;;6071227;23;20165;-82
2023/12/29 12:55:56;;;;;;;6.73;4.67;;;10.20;93.00;;;;;;6063737;23;20328;-82
2023/12/29 12:58:26;;;;;;;6.83;4.30;;;10.20;92.60;;;;;;6072092;23;20220;-82
2023/12/29 13:00:59;;;;;;;5.90;4.50;;;10.20;93.10;;;;;;6058837;23;20703;-83
2023/12/29 13:03:28;;;;;;;7.63;4.47;;;10.30;92.80;;;;;;6073969;23;20189;-83
2023/12/29 13:05:58;;;;;;;4.90;4.40;;;10.30;92.90;;;;;;6069469;23;20200;-84
2023/12/29 13:08:28;;;;;;;5.93;4.90;;;10.30;93.30;;;;;;6071304;23;20180;-85
2023/12/29 13:11:12;;;;;;;5.83;4.40;;;10.40;92.40;;;;;;6083960;23;20421;-88
2023/12/29 13:13:43;;;;;;;7.53;5.03;;;10.30;92.80;;;;;;6085339;23;20164;-84
2023/12/29 13:16:35;;;;;;;6.07;4.67;;;10.30;92.40;;;;;;6048717;23;20212;-84
2023/12/29 13:19:17;;;;;;;7.73;5.10;;;10.30;92.90;;;;;;6089372;23;20319;-88